createdAt,value
2022-11-22T00:00:50.535Z,29.50
2022-11-22T00:03:16.796Z,27.50
2022-11-22T00:05:43.006Z,27.53
2022-11-22T00:08:09.510Z,25.97
2022-11-22T00:10:35.898Z,27.90
2022-11-22T00:13:02.555Z,23.73
2022-11-22T00:15:29.637Z,28.00
2022-11-22T00:17:55.870Z,20.93
2022-11-22T00:20:22.311Z,25.33
2022-11-22T00:22:48.556Z,25.83
2022-11-22T00:25:15.002Z,23.47
2022-11-22T00:27:41.483Z,28.93
2022-11-22T00:30:08.154Z,24.67
2022-11-22T00:32:34.454Z,24.47
2022-11-22T00:35:00.727Z,25.07
2022-11-22T00:37:27.995Z,24.90
2022-11-22T00:39:54.252Z,22.93
2022-11-22T00:42:20.490Z,26.57
2022-11-22T00:44:46.751Z,27.63
2022-11-22T00:47:13.154Z,28.80
2022-11-22T00:49:39.373Z,24.87
2022-11-22T00:52:05.637Z,25.83
2022-11-22T00:54:31.847Z,29.17
2022-11-22T00:56:58.199Z,27.67
2022-11-22T00:59:24.411Z,27.60
2022-11-22T01:01:50.631Z,31.33
2022-11-22T01:04:17.030Z,29.13
2022-11-22T01:06:43.247Z,27.93
2022-11-22T01:09:09.982Z,25.60
2022-11-22T01:11:36.199Z,31.37
2022-11-22T01:14:02.436Z,31.93
2022-11-22T01:16:28.692Z,28.77
2022-11-22T01:18:54.943Z,29.33
2022-11-22T01:21:21.164Z,30.13
2022-11-22T01:23:47.397Z,28.37
2022-11-22T01:26:13.837Z,28.47
2022-11-22T01:28:40.051Z,29.87
2022-11-22T01:31:06.266Z,30.07
2022-11-22T01:33:32.621Z,29.73
2022-11-22T01:35:58.835Z,27.27
2022-11-22T01:38:25.359Z,34.07
2022-11-22T01:40:51.749Z,30.80
2022-11-22T01:43:19.623Z,26.67
2022-11-22T01:45:47.062Z,30.97
2022-11-22T01:48:17.797Z,31.47
2022-11-22T01:50:46.729Z,25.67
2022-11-22T01:53:15.733Z,30.73
2022-11-22T01:55:42.203Z,28.17
2022-11-22T01:58:09.574Z,26.03
2022-11-22T02:00:36.818Z,30.10
2022-11-22T02:03:04.403Z,31.60
2022-11-22T02:05:32.780Z,27.40
2022-11-22T02:08:00.533Z,30.67
2022-11-22T02:10:27.739Z,28.73
2022-11-22T02:12:55.694Z,27.43
2022-11-22T02:15:21.905Z,30.87
2022-11-22T02:17:48.169Z,28.53
2022-11-22T02:20:17.066Z,29.07
2022-11-22T02:23:06.848Z,30.40
2022-11-22T02:25:37.563Z,34.70
2022-11-22T02:28:04.543Z,30.87
2022-11-22T02:30:30.763Z,33.67
2022-11-22T02:32:57.041Z,30.03
2022-11-22T02:35:24.962Z,30.03
2022-11-22T02:37:58.862Z,32.03
2022-11-22T02:40:26.408Z,27.67
2022-11-22T02:42:55.437Z,29.77
2022-11-22T02:45:21.665Z,27.20
2022-11-22T02:47:47.889Z,28.53
2022-11-22T02:50:14.261Z,30.17
2022-11-22T02:52:40.554Z,30.63
2022-11-22T02:55:07.000Z,29.90
2022-11-22T02:57:33.265Z,29.67
2022-11-22T02:59:59.485Z,28.20
2022-11-22T03:02:25.724Z,27.03
2022-11-22T03:04:51.993Z,28.00
2022-11-22T03:07:18.379Z,30.17
2022-11-22T03:09:44.736Z,31.57
2022-11-22T03:12:10.980Z,27.83
2022-11-22T03:14:37.217Z,31.00
2022-11-22T03:17:03.439Z,27.60
2022-11-22T03:19:29.806Z,27.90
2022-11-22T03:21:56.240Z,33.20
2022-11-22T03:24:22.489Z,32.13
2022-11-22T03:26:49.504Z,31.50
2022-11-22T03:29:16.616Z,28.07
2022-11-22T03:31:42.866Z,28.20
2022-11-22T03:34:10.910Z,29.70
2022-11-22T03:36:37.131Z,29.17
2022-11-22T03:39:03.655Z,31.33
2022-11-22T03:41:29.965Z,30.80
2022-11-22T03:43:56.180Z,33.93
2022-11-22T03:46:22.377Z,33.33
2022-11-22T03:48:48.582Z,32.10
2022-11-22T03:51:14.819Z,32.13
2022-11-22T03:53:41.240Z,31.47
2022-11-22T03:56:08.376Z,30.97
2022-11-22T03:58:34.667Z,32.90
2022-11-22T04:01:01.271Z,31.43
2022-11-22T04:03:27.756Z,34.47
2022-11-22T04:05:54.139Z,30.37
2022-11-22T04:08:20.368Z,30.30
2022-11-22T04:10:48.027Z,29.70
2022-11-22T04:13:14.592Z,31.57
2022-11-22T04:15:40.873Z,31.13
2022-11-22T04:18:09.267Z,29.63
2022-11-22T04:20:53.986Z,33.03
2022-11-22T04:23:21.197Z,32.70
2022-11-22T04:25:48.758Z,39.87
2022-11-22T04:28:16.290Z,33.40
2022-11-22T04:31:01.608Z,34.47
2022-11-22T04:33:28.307Z,31.97
2022-11-22T04:35:54.810Z,35.60
2022-11-22T04:38:21.352Z,34.63
2022-11-22T04:40:47.791Z,34.67
2022-11-22T04:43:45.878Z,37.30
2022-11-22T04:46:12.789Z,34.67
2022-11-22T04:48:39.147Z,37.20
2022-11-22T04:51:24.490Z,38.37
2022-11-22T04:53:50.767Z,33.60
2022-11-22T04:56:17.053Z,35.43
2022-11-22T04:58:43.601Z,38.53
2022-11-22T05:01:10.142Z,37.97
2022-11-22T05:03:36.486Z,36.07
2022-11-22T05:06:03.583Z,38.57
2022-11-22T05:08:29.974Z,35.90
2022-11-22T05:11:02.165Z,42.80
2022-11-22T05:13:31.594Z,38.07
2022-11-22T05:15:58.459Z,36.23
2022-11-22T05:18:25.454Z,39.50
2022-11-22T05:20:52.101Z,39.70
2022-11-22T05:23:37.483Z,45.30
2022-11-22T05:26:04.086Z,37.73
2022-11-22T05:28:31.738Z,37.53
2022-11-22T05:30:58.046Z,38.57
2022-11-22T05:33:24.301Z,38.23
2022-11-22T05:35:50.719Z,40.00
2022-11-22T05:38:16.975Z,36.90
2022-11-22T05:40:43.183Z,39.93
2022-11-22T05:43:09.463Z,42.70
2022-11-22T05:45:35.675Z,39.57
2022-11-22T05:48:01.887Z,46.23
2022-11-22T05:50:28.353Z,47.00
2022-11-22T05:52:54.855Z,38.80
2022-11-22T05:55:21.071Z,42.47
2022-11-22T05:57:47.299Z,40.27
2022-11-22T06:00:13.695Z,46.93
2022-11-22T06:02:40.047Z,43.07
2022-11-22T06:05:06.443Z,43.10
2022-11-22T06:07:32.818Z,45.90
2022-11-22T06:09:59.092Z,42.30
2022-11-22T06:12:25.313Z,42.40
2022-11-22T06:14:51.542Z,43.40
2022-11-22T06:17:17.771Z,43.23
2022-11-22T06:19:44.257Z,49.20
2022-11-22T06:22:10.480Z,44.60
2022-11-22T06:24:36.745Z,45.43
2022-11-22T06:27:03.001Z,43.00
2022-11-22T06:29:29.757Z,45.47
2022-11-22T06:32:00.419Z,40.23
2022-11-22T06:34:29.715Z,42.43
2022-11-22T06:36:55.926Z,43.17
2022-11-22T06:39:22.145Z,45.77
2022-11-22T06:41:48.352Z,40.53
2022-11-22T06:44:14.997Z,41.23
2022-11-22T06:46:41.218Z,47.67
2022-11-22T06:49:07.454Z,40.70
2022-11-22T06:51:33.738Z,45.07
2022-11-22T06:54:00.033Z,44.87
2022-11-22T06:56:27.951Z,46.80
2022-11-22T06:58:54.465Z,44.13
2022-11-22T07:01:28.153Z,44.97
2022-11-22T07:03:57.993Z,42.23
2022-11-22T07:06:25.594Z,43.37
2022-11-22T07:08:52.241Z,43.10
2022-11-22T07:11:19.678Z,43.93
2022-11-22T07:13:46.626Z,42.07
2022-11-22T07:16:16.097Z,44.77
2022-11-22T07:18:42.442Z,42.60
2022-11-22T07:21:13.482Z,44.60
2022-11-22T07:23:40.945Z,40.23
2022-11-22T07:26:07.189Z,45.33
2022-11-22T07:28:33.416Z,41.90
2022-11-22T07:31:00.548Z,42.53
2022-11-22T07:33:26.933Z,41.00
2022-11-22T07:35:53.190Z,43.73
2022-11-22T07:38:19.507Z,43.57
2022-11-22T07:40:45.746Z,39.87
2022-11-22T07:43:11.999Z,43.07
2022-11-22T07:45:38.266Z,44.03
2022-11-22T07:48:04.625Z,43.63
2022-11-22T07:50:31.420Z,41.90
2022-11-22T07:52:58.357Z,43.83
2022-11-22T07:55:25.452Z,44.70
2022-11-22T07:57:52.347Z,38.37
2022-11-22T08:00:19.001Z,41.13
2022-11-22T08:02:45.940Z,44.20
2022-11-22T08:05:12.236Z,45.97
2022-11-22T08:07:38.529Z,45.07
2022-11-22T08:10:04.985Z,44.00
2022-11-22T08:12:31.186Z,40.33
2022-11-22T08:14:57.472Z,44.03
2022-11-22T08:17:23.786Z,41.17
2022-11-22T08:19:53.369Z,41.33
2022-11-22T08:22:19.651Z,43.63
2022-11-22T08:24:45.890Z,41.63
2022-11-22T08:27:12.098Z,41.87
2022-11-22T08:29:38.318Z,43.20
2022-11-22T08:32:04.703Z,38.30
2022-11-22T08:34:30.923Z,40.53
2022-11-22T08:36:57.194Z,43.93
2022-11-22T08:39:23.401Z,43.40
2022-11-22T08:41:49.610Z,39.93
2022-11-22T08:44:15.821Z,40.07
2022-11-22T08:46:42.025Z,40.93
2022-11-22T08:49:10.445Z,43.37
2022-11-22T08:51:36.979Z,42.40
2022-11-22T08:54:03.243Z,40.23
2022-11-22T08:56:29.455Z,43.33
2022-11-22T08:58:55.718Z,40.33
2022-11-22T09:01:23.319Z,45.60
2022-11-22T09:03:49.751Z,46.37
2022-11-22T09:09:29.915Z,40.87
2022-11-22T09:11:50.190Z,44.47
2022-11-22T09:14:16.426Z,44.33
2022-11-22T09:16:42.697Z,46.40
2022-11-22T09:19:09.162Z,44.50
2022-11-22T09:21:35.465Z,48.07
2022-11-22T09:24:01.818Z,46.63
2022-11-22T09:26:29.203Z,42.73
2022-11-22T09:28:56.522Z,44.23
2022-11-22T09:31:23.617Z,48.13
2022-11-22T09:33:50.347Z,42.97
2022-11-22T09:36:17.617Z,41.77
2022-11-22T09:38:43.904Z,41.20
2022-11-22T09:41:16.392Z,42.87
2022-11-22T09:43:58.482Z,43.83
2022-11-22T09:46:31.611Z,52.57
2022-11-22T09:49:05.366Z,46.20
2022-11-22T09:51:38.224Z,45.90
2022-11-22T09:54:12.793Z,45.23
2022-11-22T09:56:39.775Z,46.80
2022-11-22T09:59:18.464Z,42.23
2022-11-22T10:01:48.942Z,49.33
2022-11-22T10:04:24.761Z,43.50
2022-11-22T10:06:56.144Z,42.40
2022-11-22T10:09:30.743Z,45.37
2022-11-22T10:12:00.716Z,43.53
2022-11-22T10:14:34.579Z,48.63
2022-11-22T10:17:00.789Z,46.67
2022-11-22T10:19:34.753Z,46.10
2022-11-22T10:22:01.075Z,39.93
2022-11-22T10:24:28.311Z,48.23
2022-11-22T10:26:57.434Z,47.10
2022-11-22T10:29:34.056Z,47.60
2022-11-22T10:32:00.455Z,48.40
2022-11-22T10:34:38.797Z,44.63
2022-11-22T10:37:24.367Z,46.87
2022-11-22T10:40:11.974Z,49.27
2022-11-22T10:42:58.522Z,50.97
2022-11-22T10:45:30.955Z,47.43
2022-11-22T10:48:04.786Z,45.97
2022-11-22T10:50:49.629Z,46.13
2022-11-22T10:53:18.931Z,40.63
2022-11-22T10:55:50.112Z,44.97
2022-11-22T10:58:36.330Z,43.53
2022-11-22T11:01:22.754Z,45.27
2022-11-22T11:03:51.484Z,50.03
2022-11-22T11:06:26.568Z,45.50
2022-11-22T11:10:03.004Z,46.80
2022-11-22T11:11:56.343Z,49.33
2022-11-22T11:14:34.471Z,44.80
2022-11-22T11:17:01.035Z,44.70
2022-11-22T11:19:30.645Z,43.97
2022-11-22T11:22:01.062Z,45.70
2022-11-22T11:24:29.185Z,42.13
2022-11-22T11:26:56.426Z,47.47
2022-11-22T11:29:36.119Z,46.83
2022-11-22T11:32:05.608Z,45.10
2022-11-22T11:34:32.705Z,43.33
2022-11-22T11:37:02.074Z,45.63
2022-11-22T11:39:29.803Z,46.57
2022-11-22T11:41:56.387Z,46.97
2022-11-22T11:44:37.766Z,41.20
2022-11-22T11:47:04.493Z,39.93
2022-11-22T11:49:32.152Z,41.97
2022-11-22T11:51:59.853Z,47.13
2022-11-22T11:54:39.605Z,47.47
2022-11-22T11:57:09.590Z,42.80
2022-11-22T11:59:38.965Z,52.40
2022-11-22T12:02:11.084Z,42.83
2022-11-22T12:04:46.082Z,44.20
2022-11-22T12:07:27.077Z,42.97
2022-11-22T12:09:54.310Z,43.73
2022-11-22T12:13:04.035Z,41.77
2022-11-22T12:15:35.263Z,42.60
2022-11-22T12:18:06.986Z,42.93
2022-11-22T12:20:46.353Z,47.50
2022-11-22T12:23:32.392Z,42.33
2022-11-22T12:25:58.958Z,40.97
2022-11-22T12:28:27.316Z,46.53
2022-11-22T12:30:55.564Z,44.40
2022-11-22T12:33:25.736Z,39.80
2022-11-22T12:35:54.725Z,43.27
2022-11-22T12:38:25.884Z,43.93
2022-11-22T12:40:54.184Z,43.17
2022-11-22T12:43:33.495Z,41.10
2022-11-22T12:46:04.294Z,43.87
2022-11-22T12:48:34.603Z,42.83
2022-11-22T12:51:07.378Z,44.23
2022-11-22T12:53:35.930Z,45.03
2022-11-22T12:56:20.714Z,41.67
2022-11-22T12:58:53.097Z,40.60
2022-11-22T13:01:26.259Z,44.40
2022-11-22T13:04:11.129Z,43.73
2022-11-22T13:07:05.246Z,46.53
2022-11-22T13:09:33.375Z,43.07
2022-11-22T13:12:11.338Z,46.60
2022-11-22T13:14:49.953Z,41.07
2022-11-22T13:17:17.190Z,47.17
2022-11-22T13:19:47.193Z,43.27
2022-11-22T13:22:25.431Z,41.03
2022-11-22T13:24:54.497Z,42.33
2022-11-22T13:27:20.749Z,41.23
2022-11-22T13:29:47.613Z,47.60
2022-11-22T13:32:13.813Z,48.97
2022-11-22T13:34:59.505Z,50.43
2022-11-22T13:37:26.953Z,41.80
2022-11-22T13:39:53.253Z,43.17
2022-11-22T13:42:23.827Z,43.97
2022-11-22T13:44:51.458Z,50.00
2022-11-22T13:47:23.572Z,46.27
2022-11-22T13:49:50.885Z,43.90
2022-11-22T13:52:17.109Z,37.47
2022-11-22T13:54:43.401Z,43.43
2022-11-22T13:57:28.469Z,41.73
2022-11-22T14:00:13.839Z,41.67
2022-11-22T14:02:40.767Z,44.20
2022-11-22T14:05:25.901Z,47.37
2022-11-22T14:07:52.912Z,45.13
2022-11-22T14:10:25.723Z,45.20
2022-11-22T14:12:52.483Z,43.20
2022-11-22T14:15:37.267Z,42.40
2022-11-22T14:18:06.351Z,41.93
2022-11-22T14:20:51.202Z,43.67
2022-11-22T14:23:37.923Z,41.93
2022-11-22T14:26:16.690Z,40.43
2022-11-22T14:29:02.233Z,40.93
2022-11-22T14:31:29.650Z,40.90
2022-11-22T14:34:15.311Z,40.53
2022-11-22T14:36:41.581Z,38.53
2022-11-22T14:39:32.259Z,41.30
2022-11-22T14:41:59.855Z,42.27
2022-11-22T14:44:31.349Z,43.67
2022-11-22T14:47:03.013Z,40.00
2022-11-22T14:49:32.462Z,42.43
2022-11-22T14:51:59.681Z,38.47
2022-11-22T14:54:30.860Z,41.17
2022-11-22T14:57:03.954Z,40.77
2022-11-22T14:59:30.781Z,39.23
2022-11-22T15:02:15.990Z,41.57
2022-11-22T15:09:14.161Z,42.30
2022-11-22T15:09:15.370Z,43.07
2022-11-22T15:10:33.741Z,40.07
2022-11-22T15:12:59.977Z,37.83
2022-11-22T15:58:12.746Z,38.93
2022-11-22T16:00:43.530Z,45.80
2022-11-22T16:03:21.395Z,40.97
2022-11-22T16:06:06.304Z,42.57
2022-11-22T16:08:35.385Z,40.00
2022-11-22T16:11:03.399Z,46.87
2022-11-22T16:13:33.192Z,42.87
2022-11-22T16:16:11.635Z,43.27
2022-11-22T16:18:41.873Z,39.97
2022-11-22T16:21:11.339Z,46.03
2022-11-22T16:23:41.043Z,40.17
2022-11-22T16:26:25.831Z,43.70
2022-11-22T16:28:53.274Z,42.93
2022-11-22T16:31:24.038Z,42.60
2022-11-22T16:33:51.040Z,44.47
2022-11-22T16:36:18.132Z,40.70
2022-11-22T16:38:44.697Z,49.57
2022-11-22T16:41:13.007Z,48.63
2022-11-22T16:43:39.224Z,43.47
2022-11-22T16:46:05.652Z,43.33
2022-11-22T16:48:33.285Z,46.00
2022-11-22T16:51:08.404Z,46.67
2022-11-22T16:53:37.502Z,43.40
2022-11-22T16:56:03.823Z,44.87
2022-11-22T16:58:31.136Z,46.93
2022-11-22T17:00:57.501Z,47.33
2022-11-22T17:03:26.507Z,44.10
2022-11-22T17:05:52.797Z,49.70
2022-11-22T17:08:19.449Z,46.13
2022-11-22T17:10:52.596Z,46.70
2022-11-22T17:13:20.446Z,50.90
2022-11-22T17:15:47.177Z,47.67
2022-11-22T17:18:13.563Z,49.37
2022-11-22T17:20:39.804Z,54.17
2022-11-22T17:23:07.096Z,44.73
2022-11-22T17:25:33.301Z,47.07
2022-11-22T17:27:59.558Z,50.03
2022-11-22T17:30:25.826Z,48.40
2022-11-22T17:32:52.218Z,50.67
2022-11-22T17:35:18.480Z,48.60
2022-11-22T17:37:44.681Z,48.57
2022-11-22T17:40:11.109Z,49.77
2022-11-22T17:42:41.189Z,45.37
2022-11-22T17:45:07.766Z,49.17
2022-11-22T17:47:35.611Z,49.17
2022-11-22T17:50:01.839Z,51.57
2022-11-22T17:52:28.045Z,53.37
2022-11-22T17:54:54.308Z,51.33
2022-11-22T17:57:21.874Z,52.40
2022-11-22T17:59:48.193Z,52.43
2022-11-22T18:02:14.525Z,52.63
2022-11-22T18:04:49.807Z,57.93
2022-11-22T18:07:16.084Z,55.53
2022-11-22T18:09:42.434Z,54.53
2022-11-22T18:12:08.655Z,55.07
2022-11-22T18:14:34.860Z,50.27
2022-11-22T18:17:01.335Z,54.93
2022-11-22T18:19:27.561Z,54.90
2022-11-22T18:21:53.851Z,53.07
2022-11-22T18:24:20.123Z,51.77
2022-11-22T18:26:46.757Z,58.30
2022-11-22T18:32:00.535Z,52.10
2022-11-22T18:34:29.565Z,54.90
2022-11-22T18:37:00.699Z,56.33
2022-11-22T18:39:31.339Z,58.27
2022-11-22T18:41:57.916Z,61.50
2022-11-22T18:44:24.199Z,60.27
2022-11-22T18:46:50.498Z,58.40
2022-11-22T18:49:16.726Z,56.30
2022-11-22T18:51:43.053Z,56.53
2022-11-22T18:54:14.259Z,60.40
2022-11-22T18:56:41.025Z,53.53
2022-11-22T18:59:07.967Z,52.87
2022-11-22T19:01:37.367Z,58.87
2022-11-22T19:04:04.034Z,59.33
2022-11-22T19:06:30.708Z,51.70
2022-11-22T19:08:57.331Z,57.43
2022-11-22T19:11:23.565Z,52.60
2022-11-22T19:13:53.027Z,59.60
2022-11-22T19:16:21.708Z,55.47
2022-11-22T19:18:49.158Z,53.13
2022-11-22T19:21:16.830Z,54.93
2022-11-22T19:23:43.461Z,54.20
2022-11-22T19:26:11.785Z,55.93
2022-11-22T19:28:38.007Z,53.63
2022-11-22T19:31:07.010Z,56.23
2022-11-22T19:33:33.942Z,54.20
2022-11-22T19:36:00.999Z,50.97
2022-11-22T19:38:27.375Z,54.80
2022-11-22T19:40:53.870Z,58.60
2022-11-22T19:43:20.170Z,54.93
2022-11-22T19:45:46.979Z,55.40
2022-11-22T19:48:13.875Z,58.40
2022-11-22T19:50:40.726Z,52.70
2022-11-22T19:53:07.335Z,63.37
2022-11-22T19:55:34.011Z,54.13
2022-11-22T19:58:00.660Z,51.57
2022-11-22T20:00:27.445Z,55.43
2022-11-22T20:02:53.731Z,54.63
2022-11-22T20:05:20.286Z,52.40
2022-11-22T20:07:46.547Z,58.53
2022-11-22T20:10:12.868Z,52.70
2022-11-22T20:12:39.084Z,55.83
2022-11-22T20:15:06.136Z,56.00
2022-11-22T20:17:32.611Z,49.13
2022-11-22T20:19:58.959Z,51.03
2022-11-22T20:22:25.241Z,51.07
2022-11-22T20:24:51.455Z,48.30
2022-11-22T20:27:24.393Z,56.60
2022-11-22T20:29:50.980Z,56.53
2022-11-22T20:32:17.346Z,50.87
2022-11-22T20:34:43.565Z,52.93
2022-11-22T20:37:10.805Z,57.03
2022-11-22T20:39:37.486Z,49.00
2022-11-22T20:42:32.453Z,57.30
2022-11-22T20:44:50.291Z,52.60
2022-11-22T20:47:16.516Z,53.30
2022-11-22T20:49:45.674Z,54.30
2022-11-22T20:52:12.141Z,50.57
2022-11-22T20:54:38.517Z,54.00
2022-11-22T20:57:04.749Z,52.03
2022-11-22T20:59:30.966Z,51.23
2022-11-22T21:01:57.219Z,53.60
2022-11-22T21:04:23.589Z,55.67
2022-11-22T21:06:49.805Z,50.50
2022-11-22T21:09:16.181Z,60.93
2022-11-22T21:11:45.284Z,49.07
2022-11-22T21:14:11.977Z,52.47
2022-11-22T21:16:38.336Z,51.90
2022-11-22T21:19:05.062Z,54.07
2022-11-22T21:21:32.129Z,56.30
2022-11-22T21:23:59.910Z,52.77
2022-11-22T21:26:26.388Z,52.13
2022-11-22T21:28:53.100Z,56.20
2022-11-22T21:31:19.903Z,52.90
2022-11-22T21:33:46.574Z,52.30
2022-11-22T21:36:12.880Z,54.93
2022-11-22T21:38:39.097Z,56.77
2022-11-22T21:41:32.288Z,55.83
2022-11-22T21:43:54.110Z,51.77
2022-11-22T21:46:20.372Z,48.97
2022-11-22T21:48:47.829Z,57.83
2022-11-22T21:51:14.029Z,51.40
2022-11-22T21:53:40.247Z,50.80
2022-11-22T21:56:07.014Z,52.30
2022-11-22T21:58:33.241Z,54.80
2022-11-22T22:01:08.306Z,53.00
2022-11-22T22:03:40.386Z,50.13
2022-11-22T22:06:06.795Z,53.70
2022-11-22T22:08:33.236Z,50.33
2022-11-22T22:11:00.914Z,50.23
2022-11-22T22:13:28.761Z,53.70
2022-11-22T22:15:55.551Z,58.37
2022-11-22T22:18:21.778Z,60.37
2022-11-22T22:20:47.998Z,51.57
2022-11-22T22:23:15.543Z,55.50
2022-11-22T22:25:41.742Z,55.57
2022-11-22T22:28:07.965Z,54.07
2022-11-22T22:30:34.195Z,58.97
2022-11-22T22:33:00.490Z,54.33
2022-11-22T22:35:26.748Z,55.87
2022-11-22T22:37:53.009Z,58.87
2022-11-22T22:40:19.624Z,55.50
2022-11-22T22:42:45.850Z,51.70
2022-11-22T22:45:12.088Z,52.27
2022-11-22T22:47:41.336Z,54.77
2022-11-22T22:50:10.084Z,53.23
2022-11-22T22:52:36.287Z,52.97
2022-11-22T22:55:02.501Z,53.93
2022-11-22T22:57:28.807Z,50.60
2022-11-22T22:59:55.022Z,56.00
2022-11-22T23:02:21.249Z,55.50
2022-11-22T23:04:52.527Z,59.50
2022-11-22T23:07:18.778Z,62.90
2022-11-22T23:09:45.333Z,52.90
2022-11-22T23:12:11.590Z,54.07
2022-11-22T23:14:39.623Z,54.73
2022-11-22T23:17:06.669Z,57.50
2022-11-22T23:19:33.183Z,57.63
2022-11-22T23:21:59.627Z,52.37
2022-11-22T23:24:25.980Z,55.73
2022-11-22T23:26:52.283Z,56.77
2022-11-22T23:29:18.517Z,53.40
2022-11-22T23:31:44.738Z,50.10
2022-11-22T23:34:11.477Z,56.40
2022-11-22T23:36:41.001Z,55.60
2022-11-22T23:39:07.698Z,56.77
2022-11-22T23:41:33.913Z,53.70
2022-11-22T23:44:00.133Z,58.70
2022-11-22T23:46:29.147Z,52.33
2022-11-22T23:48:56.563Z,59.03
2022-11-22T23:51:23.194Z,57.50
2022-11-22T23:53:53.298Z,54.70
2022-11-22T23:56:22.032Z,55.10
2022-11-22T23:58:48.486Z,51.57
